Time;durP1;ratioP1;P1;durP2;ratioP2;P2;SDS_P1;SDS_P2;PMS_P1;PMS_P2;Temp;Humidity;BMP_temperature;BMP_pressure;BME280_temperature;BME280_humidity;BME280_pressure;Samples;Min_cycle;Max_cycle;Signal;HPM_P1;HPM_P2
2023/07/10 00:00:24;;;;;;;8.60;4.78;;;512.30;2380.80;;;;;;5073865;28;20115;-78
2023/07/10 00:02:50;;;;;;;7.75;4.93;;;512.30;2380.80;;;;;;5074074;28;20028;-78
2023/07/10 00:05:19;;;;;;;8.50;4.53;;;487.30;2380.80;;;;;;5073630;28;20031;-77
2023/07/10 00:07:45;;;;;;;7.50;4.80;;;512.10;2380.80;;;;;;5073775;28;20021;-77
2023/07/10 00:10:16;;;;;;;9.18;4.70;;;487.30;2380.80;;;;;;5073541;28;20521;-78
2023/07/10 00:12:43;;;;;;;6.82;4.63;;;512.00;2380.80;;;;;;5074715;28;20388;-78
2023/07/10 00:15:14;;;;;;;9.10;4.85;;;512.10;2380.80;;;;;;5074083;28;20059;-79
2023/07/10 00:17:40;;;;;;;7.60;5.00;;;487.10;2380.80;;;;;;5074843;28;20329;-78
2023/07/10 00:20:14;;;;;;;10.50;4.22;;;487.30;2380.80;;;;;;5073614;28;20119;-79
2023/07/10 00:22:40;;;;;;;6.65;4.28;;;487.10;2380.80;;;;;;5073709;28;20032;-78
2023/07/10 00:25:06;;;;;;;9.93;4.50;;;487.00;2380.80;;;;;;5073600;28;20481;-78
2023/07/10 00:27:31;;;;;;;7.55;4.32;;;486.80;2380.80;;;;;;5074395;28;20064;-78
2023/07/10 00:29:57;;;;;;;8.48;4.55;;;486.90;2380.80;;;;;;5082119;28;20051;-78
2023/07/10 00:32:23;;;;;;;7.95;4.07;;;487.00;2380.80;;;;;;5110839;28;20035;-78
2023/07/10 00:34:49;;;;;;;8.65;4.70;;;486.80;2380.80;;;;;;5094822;28;20024;-78
2023/07/10 00:37:14;;;;;;;5.93;4.40;;;486.80;2380.80;;;;;;5110613;28;20081;-78
2023/07/10 00:39:40;;;;;;;6.30;4.35;;;486.90;2380.80;;;;;;5110753;28;20031;-78
2023/07/10 00:42:18;;;;;;;9.50;5.05;;;487.00;2380.80;;;;;;5110328;28;20499;-78
2023/07/10 00:44:53;;;;;;;9.88;4.45;;;486.90;2380.80;;;;;;5110623;28;20379;-79
2023/07/10 00:47:35;;;;;;;6.07;4.20;;;486.90;2380.80;;;;;;5094190;28;20024;-78
2023/07/10 00:50:26;;;;;;;8.00;4.45;;;486.80;2380.80;;;;;;5094522;28;20024;-80
2023/07/10 00:52:53;;;;;;;6.70;4.28;;;486.90;2380.80;;;;;;5109804;28;20031;-78
2023/07/10 00:55:37;;;;;;;7.75;4.80;;;486.90;2380.80;;;;;;5110032;28;20028;-78
2023/07/10 00:58:22;;;;;;;9.52;4.75;;;486.70;2380.80;;;;;;5110253;28;20039;-79
2023/07/10 01:00:59;;;;;;;6.05;4.53;;;486.70;2380.80;;;;;;5110153;28;20028;-79
2023/07/10 01:03:25;;;;;;;7.65;5.82;;;486.70;2380.80;;;;;;5110070;28;20032;-79
2023/07/10 01:05:51;;;;;;;8.50;4.88;;;486.70;2380.80;;;;;;5111906;28;20032;-78
2023/07/10 01:08:17;;;;;;;8.15;4.68;;;486.70;2380.80;;;;;;5111705;28;20024;-79
2023/07/10 01:10:43;;;;;;;8.05;4.72;;;486.70;2380.80;;;;;;5111449;28;20044;-78
2023/07/10 01:13:09;;;;;;;8.32;4.10;;;486.70;2380.80;;;;;;5111479;28;20074;-79
2023/07/10 01:15:35;;;;;;;8.25;4.85;;;486.70;2380.80;;;;;;5109878;28;20098;-79
2023/07/10 01:18:04;;;;;;;8.68;4.80;;;486.50;2380.80;;;;;;5109482;28;20064;-79
2023/07/10 01:20:35;;;;;;;9.48;4.70;;;461.60;2380.80;;;;;;5109784;28;20024;-79
2023/07/10 01:23:03;;;;;;;6.65;4.15;;;486.40;2380.80;;;;;;5109610;28;20031;-80
2023/07/10 01:25:35;;;;;;;9.02;4.93;;;461.60;2380.80;;;;;;5109692;28;20450;-79
2023/07/10 01:28:09;;;;;;;8.20;4.60;;;461.70;2380.80;;;;;;5112230;28;20047;-77
2023/07/10 01:30:37;;;;;;;7.15;4.05;;;486.40;2380.80;;;;;;5123035;28;20043;-79
2023/07/10 01:33:04;;;;;;;8.77;4.95;;;486.40;2380.80;;;;;;5109715;28;20052;-79
2023/07/10 01:35:32;;;;;;;6.95;4.72;;;461.70;2380.80;;;;;;5109626;28;20069;-80
2023/07/10 01:37:57;;;;;;;10.10;4.57;;;461.50;2380.80;;;;;;5093991;28;20084;-78
2023/07/10 01:40:32;;;;;;;5.35;4.13;;;461.60;2380.80;;;;;;5109472;28;20499;-80
2023/07/10 01:43:01;;;;;;;6.72;4.30;;;461.60;2380.80;;;;;;5109576;28;20031;-79
2023/07/10 01:45:27;;;;;;;9.88;4.60;;;461.70;2380.80;;;;;;5109498;28;20047;-78
2023/07/10 01:47:54;;;;;;;7.60;4.82;;;486.40;2380.80;;;;;;5109577;28;20156;-80
2023/07/10 01:50:21;;;;;;;7.55;4.80;;;461.70;2380.80;;;;;;5108907;28;20024;-79
2023/07/10 01:52:47;;;;;;;7.95;4.63;;;486.40;2380.80;;;;;;5109381;28;20036;-79
2023/07/10 01:55:16;;;;;;;5.95;4.15;;;486.40;2380.80;;;;;;5093722;28;20032;-78
2023/07/10 01:57:42;;;;;;;5.82;4.10;;;461.40;2380.80;;;;;;5109095;28;20165;-78
2023/07/10 02:00:09;;;;;;;6.70;4.75;;;461.50;2380.80;;;;;;5109273;28;20056;-80
2023/07/10 02:02:34;;;;;;;6.90;4.63;;;461.50;2380.80;;;;;;5109167;28;20024;-79
2023/07/10 02:05:00;;;;;;;7.57;4.75;;;461.40;2380.80;;;;;;5110407;28;20119;-79
2023/07/10 02:07:26;;;;;;;8.13;4.68;;;461.50;2380.80;;;;;;5113563;28;20152;-79
2023/07/10 02:09:52;;;;;;;6.47;4.60;;;461.50;2380.80;;;;;;5113532;28;20052;-79
2023/07/10 02:12:17;;;;;;;9.77;4.85;;;461.50;2380.80;;;;;;5113210;28;20128;-79
2023/07/10 02:14:45;;;;;;;6.10;4.63;;;461.50;2380.80;;;;;;5113488;28;20490;-79
2023/07/10 02:17:10;;;;;;;7.10;5.00;;;461.20;2380.80;;;;;;5113471;28;20020;-78
2023/07/10 02:19:36;;;;;;;6.35;4.85;;;461.40;2380.80;;;;;;5113184;28;20028;-78
2023/07/10 02:22:02;;;;;;;8.73;4.97;;;461.10;2380.80;;;;;;5113102;28;20024;-79
2023/07/10 02:24:28;;;;;;;7.55;4.50;;;461.30;2380.80;;;;;;5113491;28;20468;-78
2023/07/10 02:26:54;;;;;;;6.97;4.75;;;461.20;2380.80;;;;;;5115203;28;20057;-79
2023/07/10 02:29:19;;;;;;;9.13;4.70;;;461.00;2380.80;;;;;;5115643;28;20066;-78
2023/07/10 02:31:45;;;;;;;7.65;4.57;;;461.20;2380.80;;;;;;5112057;28;20122;-78
2023/07/10 02:34:11;;;;;;;8.55;4.93;;;461.20;2380.80;;;;;;5075612;28;20055;-79
2023/07/10 02:36:36;;;;;;;8.18;4.68;;;461.40;2380.80;;;;;;5075730;28;20119;-79
2023/07/10 02:39:02;;;;;;;11.40;4.78;;;461.20;2380.80;;;;;;5075193;28;20028;-79
2023/07/10 02:41:28;;;;;;;6.65;4.43;;;461.30;2380.80;;;;;;5077141;28;20025;-78
2023/07/10 02:43:54;;;;;;;7.68;5.03;;;461.30;2380.80;;;;;;5076954;28;20051;-79
2023/07/10 02:46:20;;;;;;;9.70;4.28;;;461.40;2380.80;;;;;;5075338;28;20035;-79
2023/07/10 02:48:46;;;;;;;7.00;4.28;;;461.50;2380.80;;;;;;5075479;28;20074;-79
2023/07/10 02:51:11;;;;;;;5.85;4.20;;;461.50;2380.80;;;;;;5075568;28;20086;-79
2023/07/10 02:53:38;;;;;;;8.25;4.30;;;461.50;2380.80;;;;;;5076607;28;20097;-79
2023/07/10 02:56:04;;;;;;;7.70;4.80;;;461.50;2380.80;;;;;;5087385;28;20025;-78
2023/07/10 02:58:29;;;;;;;9.32;4.75;;;461.50;2380.80;;;;;;5074820;28;20086;-80
2023/07/10 03:00:57;;;;;;;7.78;4.93;;;461.50;2380.80;;;;;;5074900;28;20487;-79
2023/07/10 03:03:24;;;;;;;8.25;4.93;;;461.50;2380.80;;;;;;5075308;28;20033;-78
2023/07/10 03:05:58;;;;;;;6.57;4.60;;;461.50;2380.80;;;;;;5076256;28;20039;-79
2023/07/10 03:08:24;;;;;;;6.20;4.25;;;461.40;2380.80;;;;;;5076111;28;20036;-79
2023/07/10 03:10:59;;;;;;;8.32;4.85;;;461.40;2380.80;;;;;;5074772;28;20400;-78
2023/07/10 03:13:24;;;;;;;8.35;5.43;;;461.30;2380.80;;;;;;5074944;28;20028;-78
2023/07/10 03:16:03;;;;;;;6.78;4.55;;;461.30;2380.80;;;;;;5074069;28;20035;-79
2023/07/10 03:18:29;;;;;;;9.77;5.05;;;461.30;2380.80;;;;;;5074900;28;20499;-78
2023/07/10 03:20:55;;;;;;;7.78;4.90;;;461.20;2380.80;;;;;;5074791;28;20056;-78
2023/07/10 03:23:21;;;;;;;7.38;4.70;;;461.30;2380.80;;;;;;5074456;28;20060;-77
2023/07/10 03:25:46;;;;;;;6.60;4.53;;;461.30;2380.80;;;;;;5074810;28;20060;-77
2023/07/10 03:28:13;;;;;;;5.57;4.43;;;461.30;2380.80;;;;;;5074391;28;20033;-79
2023/07/10 03:30:40;;;;;;;6.40;4.80;;;461.40;2380.80;;;;;;5076446;28;20036;-78
2023/07/10 03:33:06;;;;;;;10.32;4.65;;;461.30;2380.80;;;;;;5074555;28;20025;-79
2023/07/10 03:35:32;;;;;;;6.20;4.72;;;461.00;2380.80;;;;;;5073815;28;20029;-79
2023/07/10 03:37:58;;;;;;;7.55;4.93;;;461.20;2380.80;;;;;;5073625;28;20467;-78
2023/07/10 03:40:23;;;;;;;5.80;4.82;;;461.30;2380.80;;;;;;5074481;28;20024;-78
2023/07/10 03:42:49;;;;;;;11.38;6.50;;;461.40;2380.80;;;;;;5074205;28;20078;-78
2023/07/10 03:45:15;;;;;;;5.88;4.47;;;461.30;2380.80;;;;;;5074379;28;20028;-78
2023/07/10 03:47:41;;;;;;;8.63;4.68;;;461.40;2380.80;;;;;;5074406;28;20028;-78
2023/07/10 03:50:09;;;;;;;9.80;4.75;;;461.50;2380.80;;;;;;5074130;28;20036;-78
2023/07/10 03:52:35;;;;;;;7.05;4.50;;;461.50;2380.80;;;;;;5074385;28;20110;-79
2023/07/10 03:55:01;;;;;;;13.32;4.85;;;461.50;2380.80;;;;;;5074356;28;20070;-79
2023/07/10 03:57:27;;;;;;;7.97;4.72;;;461.50;2380.80;;;;;;5075143;28;20150;-79
2023/07/10 03:59:53;;;;;;;5.95;4.45;;;461.50;2380.80;;;;;;5074190;28;20029;-79
2023/07/10 04:02:19;;;;;;;6.32;4.30;;;461.50;2380.80;;;;;;5074008;28;20077;-78
2023/07/10 04:04:45;;;;;;;9.25;4.50;;;461.50;2380.80;;;;;;5074121;28;20035;-78
2023/07/10 04:07:10;;;;;;;6.20;4.57;;;461.60;2380.80;;;;;;5074309;28;20521;-79
2023/07/10 04:09:36;;;;;;;7.65;4.25;;;461.60;2380.80;;;;;;5074973;28;20135;-78
2023/07/10 04:12:02;;;;;;;9.90;5.25;;;461.70;2380.80;;;;;;5073638;28;20032;-80
2023/07/10 04:14:28;;;;;;;8.55;5.00;;;461.70;2380.80;;;;;;5074958;28;20025;-78
2023/07/10 04:16:54;;;;;;;8.02;5.10;;;486.40;2380.80;;;;;;5075240;28;20028;-79
2023/07/10 04:19:20;;;;;;;12.65;5.60;;;486.40;2380.80;;;;;;5073618;28;20036;-79
2023/07/10 04:21:46;;;;;;;9.90;4.82;;;486.40;2380.80;;;;;;5073938;28;20064;-79
2023/07/10 04:24:12;;;;;;;7.63;4.78;;;486.40;2380.80;;;;;;5073578;28;20059;-79
2023/07/10 04:26:38;;;;;;;6.07;3.97;;;486.50;2380.80;;;;;;5073498;28;20032;-79
2023/07/10 04:29:06;;;;;;;9.40;4.55;;;486.50;2380.80;;;;;;5084843;28;20025;-77
2023/07/10 04:31:33;;;;;;;6.35;4.93;;;486.60;2380.80;;;;;;5080928;28;20498;-78
2023/07/10 04:33:59;;;;;;;11.10;4.82;;;486.70;2380.80;;;;;;5073513;28;20376;-78
2023/07/10 04:36:25;;;;;;;9.45;4.38;;;486.70;2380.80;;;;;;5073364;28;20111;-79
2023/07/10 04:38:51;;;;;;;6.97;4.60;;;486.70;2380.80;;;;;;5073108;28;20067;-78
2023/07/10 04:41:20;;;;;;;9.75;5.22;;;486.70;2380.80;;;;;;5073190;28;20033;-79
2023/07/10 04:43:47;;;;;;;11.05;5.70;;;486.70;2380.80;;;;;;5073259;28;20044;-79
2023/07/10 04:46:14;;;;;;;10.65;5.50;;;486.70;2380.80;;;;;;5073216;28;20021;-78
2023/07/10 04:48:42;;;;;;;9.57;5.53;;;486.70;2380.80;;;;;;5072991;28;20025;-78
2023/07/10 04:51:10;;;;;;;11.85;5.82;;;486.70;2380.80;;;;;;5073150;28;20024;-79
2023/07/10 04:53:35;;;;;;;10.07;5.28;;;486.60;2380.80;;;;;;5072934;28;20047;-79
2023/07/10 04:56:04;;;;;;;11.13;4.97;;;486.70;2380.80;;;;;;5073143;28;20468;-79
2023/07/10 04:58:43;;;;;;;13.07;6.10;;;486.70;2380.80;;;;;;5073132;28;20024;-78
2023/07/10 05:01:09;;;;;;;12.90;5.88;;;486.70;2380.80;;;;;;5072866;28;20064;-78
2023/07/10 05:03:35;;;;;;;10.23;6.72;;;486.70;2380.80;;;;;;5074633;28;20039;-78
2023/07/10 05:06:01;;;;;;;13.77;6.03;;;486.80;2380.80;;;;;;5072668;28;20028;-77
2023/07/10 05:08:27;;;;;;;14.90;6.75;;;486.70;2380.80;;;;;;5072715;28;20032;-79
2023/07/10 05:10:54;;;;;;;11.55;5.32;;;486.80;2380.80;;;;;;5074161;28;20035;-78
2023/07/10 05:13:29;;;;;;;13.10;6.63;;;486.70;2380.80;;;;;;5072532;28;20028;-79
2023/07/10 05:15:57;;;;;;;9.50;5.82;;;486.60;2380.80;;;;;;5073803;28;20461;-79
2023/07/10 05:18:25;;;;;;;11.00;6.40;;;486.70;2380.80;;;;;;5072661;28;20070;-79
2023/07/10 05:20:50;;;;;;;9.95;5.63;;;486.90;2380.80;;;;;;5072278;28;20488;-79
2023/07/10 05:23:19;;;;;;;11.35;6.38;;;486.90;2380.80;;;;;;5073805;28;20030;-79
2023/07/10 05:26:07;;;;;;;11.77;7.25;;;486.90;2380.80;;;;;;5072633;28;20029;-80
2023/07/10 05:28:35;;;;;;;9.65;6.25;;;486.90;2380.80;;;;;;5072218;28;20051;-79
2023/07/10 05:31:02;;;;;;;8.32;5.65;;;487.10;2380.80;;;;;;5072441;28;20028;-79
2023/07/10 05:33:29;;;;;;;9.88;5.75;;;487.10;2380.80;;;;;;5072428;28;20031;-79
2023/07/10 05:35:57;;;;;;;9.57;5.55;;;487.20;2380.80;;;;;;5073140;28;20430;-79
2023/07/10 05:38:27;;;;;;;8.38;5.32;;;487.20;2380.80;;;;;;5072149;28;20024;-79
2023/07/10 05:40:53;;;;;;;10.52;4.90;;;487.30;2380.80;;;;;;5072215;28;20074;-78
2023/07/10 05:43:19;;;;;;;10.23;5.43;;;512.00;2380.80;;;;;;5072020;28;20032;-80
2023/07/10 05:45:49;;;;;;;11.27;5.35;;;512.10;2380.80;;;;;;5072463;28;20032;-79
2023/07/10 05:48:15;;;;;;;10.15;5.90;;;512.30;2380.80;;;;;;5073453;28;20093;-79
2023/07/10 05:50:47;;;;;;;11.50;4.90;;;512.40;2380.80;;;;;;5072081;28;20486;-78
2023/07/10 05:53:13;;;;;;;9.35;5.63;;;512.50;2380.80;;;;;;5072328;28;20025;-78
2023/07/10 05:55:51;;;;;;;14.43;6.90;;;512.50;2380.80;;;;;;5073312;28;20460;-79
2023/07/10 05:58:18;;;;;;;15.30;5.55;;;512.40;2380.80;;;;;;5072452;28;20059;-78
2023/07/10 06:00:47;;;;;;;10.20;5.35;;;512.50;2380.80;;;;;;5072036;28;20077;-76
2023/07/10 06:03:13;;;;;;;11.75;5.65;;;512.60;2380.80;;;;;;5073145;28;20028;-77
2023/07/10 06:05:39;;;;;;;11.68;5.90;;;512.80;2380.80;;;;;;5071810;28;20077;-77
2023/07/10 06:08:06;;;;;;;10.40;5.47;;;512.90;2380.80;;;;;;5073167;28;20100;-77
2023/07/10 06:10:33;;;;;;;8.30;5.38;;;512.90;2380.80;;;;;;5071527;28;20059;-77
2023/07/10 06:12:59;;;;;;;12.27;5.60;;;512.90;2380.80;;;;;;5073343;28;20020;-78
2023/07/10 06:15:25;;;;;;;11.50;5.75;;;537.70;2406.40;;;;;;5073170;28;20028;-78
2023/07/10 06:17:50;;;;;;;8.52;5.32;;;537.80;2406.40;;;;;;5071730;28;20032;-78
2023/07/10 06:20:17;;;;;;;11.35;5.53;;;537.80;2406.40;;;;;;5089231;28;20050;-78
2023/07/10 06:22:42;;;;;;;7.55;5.00;;;538.00;2406.40;;;;;;5092851;28;20111;-78
2023/07/10 06:25:09;;;;;;;10.85;6.35;;;538.10;2406.40;;;;;;5093060;28;20441;-80
2023/07/10 06:27:35;;;;;;;11.52;5.43;;;538.30;2406.40;;;;;;5092074;28;20468;-79
2023/07/10 06:30:02;;;;;;;14.63;10.82;;;538.30;2406.40;;;;;;5091687;28;20073;-78
2023/07/10 06:32:28;;;;;;;19.63;12.95;;;563.20;2432.00;;;;;;5093101;28;20028;-77
2023/07/10 06:34:53;;;;;;;9.65;7.40;;;563.30;2432.00;;;;;;5091683;28;20357;-77
2023/07/10 06:37:19;;;;;;;18.10;11.82;;;563.50;2432.00;;;;;;5093185;28;20032;-79
2023/07/10 06:40:07;;;;;;;18.95;14.52;;;563.60;2432.00;;;;;;5093339;28;20126;-79
2023/07/10 06:42:33;;;;;;;12.63;9.85;;;563.40;2432.00;;;;;;5091935;28;20028;-78
2023/07/10 06:44:59;;;;;;;9.60;5.80;;;563.60;2432.00;;;;;;5091587;28;20141;-78
2023/07/10 06:47:24;;;;;;;7.97;5.20;;;563.60;2432.00;;;;;;5091137;28;20383;-79
2023/07/10 06:49:50;;;;;;;9.00;6.45;;;563.80;2432.00;;;;;;5090967;28;20099;-78
2023/07/10 06:52:16;;;;;;;9.32;5.70;;;564.00;2432.00;;;;;;5094674;28;20035;-78
2023/07/10 06:54:41;;;;;;;7.20;5.13;;;564.10;2432.00;;;;;;5095588;28;20035;-78
2023/07/10 06:57:07;;;;;;;10.27;5.70;;;564.10;2432.00;;;;;;5095620;28;20118;-81
2023/07/10 06:59:33;;;;;;;6.93;4.65;;;564.10;2432.00;;;;;;5095056;28;20035;-78
2023/07/10 07:01:59;;;;;;;6.60;4.57;;;564.00;2432.00;;;;;;5093717;28;20395;-79
2023/07/10 07:04:24;;;;;;;7.85;5.25;;;588.80;2432.00;;;;;;5093655;28;20383;-79
2023/07/10 07:06:50;;;;;;;8.43;4.85;;;588.80;2432.00;;;;;;5094781;28;20486;-80
2023/07/10 07:09:16;;;;;;;9.55;5.80;;;564.10;2432.00;;;;;;5095958;28;20082;-79
2023/07/10 07:11:42;;;;;;;6.43;4.82;;;588.90;2432.00;;;;;;5095236;28;20028;-79
2023/07/10 07:14:08;;;;;;;11.23;5.65;;;563.90;2432.00;;;;;;5096190;28;20459;-80
2023/07/10 07:16:34;;;;;;;9.00;5.82;;;589.00;2432.00;;;;;;5095191;28;20078;-80
2023/07/10 07:18:59;;;;;;;9.77;7.10;;;589.20;2432.00;;;;;;5095412;28;20478;-79
2023/07/10 07:21:25;;;;;;;11.60;7.10;;;589.30;2432.00;;;;;;5076289;28;20106;-80
2023/07/10 07:23:51;;;;;;;13.38;5.80;;;589.50;2432.00;;;;;;5074959;28;20071;-82
2023/07/10 07:26:17;;;;;;;9.93;6.70;;;589.70;2432.00;;;;;;5074673;28;20028;-81
2023/07/10 07:28:44;;;;;;;8.85;6.05;;;589.70;2432.00;;;;;;5074936;28;20469;-81
2023/07/10 07:31:09;;;;;;;9.88;5.93;;;614.50;2432.00;;;;;;5076408;28;20086;-81
2023/07/10 07:33:35;;;;;;;11.68;5.70;;;614.70;2432.00;;;;;;5087798;28;20009;-81
2023/07/10 07:36:02;;;;;;;13.32;6.25;;;614.80;2432.00;;;;;;5085927;28;20036;-81
2023/07/10 07:38:28;;;;;;;20.45;12.30;;;615.00;2432.00;;;;;;5074608;28;20392;-82
2023/07/10 07:40:57;;;;;;;11.27;6.10;;;615.10;2432.00;;;;;;5075158;28;20451;-80
2023/07/10 07:43:24;;;;;;;10.90;8.15;;;615.00;2432.00;;;;;;5074621;28;20135;-81
2023/07/10 07:45:54;;;;;;;8.68;6.88;;;615.20;2432.00;;;;;;5075590;28;20025;-81
2023/07/10 07:48:21;;;;;;;8.90;5.13;;;;;;;;;;5074359;28;20028;-81
2023/07/10 07:51:03;;;;;;;10.88;8.27;;;640.20;2432.00;;;;;;5075159;28;20020;-82
2023/07/10 07:53:32;;;;;;;10.70;5.40;;;640.20;2432.00;;;;;;5084211;28;20028;-82
2023/07/10 07:56:01;;;;;;;8.13;5.32;;;640.20;2432.00;;;;;;5094226;28;20256;-82
2023/07/10 07:58:28;;;;;;;8.60;6.40;;;640.40;2432.00;;;;;;5094386;28;20035;-82
2023/07/10 08:00:55;;;;;;;9.95;6.85;;;640.10;2432.00;;;;;;5094131;28;20036;-82
2023/07/10 08:03:20;;;;;;;6.68;5.18;;;640.30;2432.00;;;;;;5094196;28;20028;-82
2023/07/10 08:05:46;;;;;;;13.32;5.50;;;640.60;2432.00;;;;;;5094134;28;20028;-81
2023/07/10 08:08:12;;;;;;;15.15;8.20;;;640.50;2432.00;;;;;;5094686;28;20388;-82
2023/07/10 08:10:46;;;;;;;11.07;6.38;;;640.60;2432.00;;;;;;5091434;28;20044;-82
2023/07/10 08:13:17;;;;;;;9.73;5.78;;;640.90;2432.00;;;;;;5078534;28;20120;-80
2023/07/10 08:15:44;;;;;;;7.65;4.32;;;665.60;2432.00;;;;;;5089496;28;20032;-81
2023/07/10 08:18:10;;;;;;;7.72;4.80;;;665.80;2432.00;;;;;;5073928;28;20032;-81
2023/07/10 08:20:36;;;;;;;10.73;4.97;;;665.60;2432.00;;;;;;5075277;28;20073;-82
2023/07/10 08:23:04;;;;;;;8.43;5.20;;;665.70;2432.00;;;;;;5091030;28;20028;-81
2023/07/10 08:25:30;;;;;;;10.80;4.72;;;666.00;2432.00;;;;;;5091489;28;20032;-82
2023/07/10 08:28:00;;;;;;;8.23;5.05;;;666.30;2432.00;;;;;;5075423;28;20029;-79
2023/07/10 08:30:26;;;;;;;8.80;5.03;;;;;;;;;;5092206;28;20485;-81
2023/07/10 08:32:52;;;;;;;13.73;4.90;;;691.40;2432.00;;;;;;5111018;28;20376;-81
2023/07/10 08:35:18;;;;;;;10.07;5.50;;;691.60;2432.00;;;;;;5110915;28;20028;-81
2023/07/10 08:37:44;;;;;;;13.52;4.65;;;691.90;2406.40;;;;;;5110414;28;20028;-79
2023/07/10 08:40:29;;;;;;;11.05;4.90;;;691.90;2406.40;;;;;;5110715;28;20035;-79
2023/07/10 08:42:55;;;;;;;12.90;6.45;;;;;;;;;;5109186;28;20475;-80
2023/07/10 08:45:31;;;;;;;9.77;5.00;;;;;;;;;;5094025;28;20030;-81
2023/07/10 08:48:01;;;;;;;13.57;8.20;;;;;;;;;;5094071;28;20472;-79
2023/07/10 08:50:29;;;;;;;11.50;7.03;;;;;;;;;;5094035;28;20032;-80
2023/07/10 08:53:12;;;;;;;6.82;4.90;;;;;;;;;;5097570;28;20020;-80
2023/07/10 08:55:45;;;;;;;10.77;4.00;;;;;;;;;;5095260;28;20610;-80
2023/07/10 08:58:17;;;;;;;9.93;4.30;;;;;;;;;;5094353;28;20028;-78
2023/07/10 09:00:44;;;;;;;10.00;4.10;;;;;;;;;;5094655;28;20099;-80
2023/07/10 09:03:12;;;;;;;7.47;5.65;;;;;;;;;;5094530;28;20024;-79
2023/07/10 09:05:40;;;;;;;8.02;3.78;;;;;;;;;;5093124;28;20020;-79
2023/07/10 09:08:11;;;;;;;9.98;5.95;;;;;;;;;;5094499;28;20051;-80
2023/07/10 09:10:46;;;;;;;8.70;4.22;;;;;;;;;;5092619;28;20515;-79
2023/07/10 09:13:14;;;;;;;7.95;3.92;;;;;;;;;;5092558;28;20016;-81
2023/07/10 09:15:43;;;;;;;5.60;3.50;;;;;;;;;;5094081;28;20507;-79
2023/07/10 09:18:17;;;;;;;8.90;5.97;;;;;;;;;;5092840;28;20060;-80
2023/07/10 09:20:44;;;;;;;10.45;4.65;;;;;;;;;;5093767;28;20021;-81
2023/07/10 09:23:22;;;;;;;6.82;3.55;;;;;;;;;;5094923;28;20340;-80
2023/07/10 09:25:53;;;;;;;7.78;4.20;;;;;;;;;;5094683;28;20027;-80
2023/07/10 09:28:19;;;;;;;5.95;4.05;;;;;;;;;;5094787;28;20020;-79
2023/07/10 09:30:55;;;;;;;7.28;4.32;;;;;;;;;;5094804;28;20024;-80
2023/07/10 09:33:21;;;;;;;6.40;4.38;;;742.90;2150.40;;;;;;5092491;28;20492;-79
2023/07/10 09:35:47;;;;;;;7.55;4.40;;;742.80;2150.40;;;;;;5093857;28;20024;-81
2023/07/10 09:38:18;;;;;;;6.57;4.35;;;742.90;2150.40;;;;;;5093070;28;20028;-81
2023/07/10 09:40:48;;;;;;;8.30;3.92;;;;;;;;;;5092881;28;20016;-81
2023/07/10 09:43:15;;;;;;;9.13;4.20;;;;;;;;;;5093203;28;20020;-80
2023/07/10 09:45:49;;;;;;;5.35;3.20;;;743.30;2124.80;;;;;;5093307;28;20494;-82
2023/07/10 09:48:36;;;;;;;5.63;4.03;;;768.00;2099.20;;;;;;5094827;28;20494;-82
2023/07/10 09:51:05;;;;;;;12.00;4.53;;;768.00;2124.80;;;;;;5099137;28;20080;-83
2023/07/10 09:53:34;;;;;;;13.48;4.32;;;768.10;2124.80;;;;;;5095743;28;20024;-81
2023/07/10 09:56:00;;;;;;;8.95;3.85;;;768.60;2124.80;;;;;;5092741;28;20020;-82
2023/07/10 09:58:26;;;;;;;6.30;3.92;;;;;;;;;;5092846;28;20030;-81
2023/07/10 10:00:53;;;;;;;9.05;4.72;;;;;;;;;;5092722;28;20486;-83
2023/07/10 10:03:23;;;;;;;5.70;3.72;;;;;;;;;;5092643;28;20053;-82
2023/07/10 10:05:53;;;;;;;5.43;3.80;;;;;;;;;;5092709;28;20055;-85
2023/07/10 10:08:26;;;;;;;6.38;3.63;;;;;;;;;;5092733;28;20061;-85
2023/07/10 10:11:14;;;;;;;9.43;3.40;;;;;;;;;;5092685;28;20038;-84
2023/07/10 10:13:45;;;;;;;7.13;3.90;;;;;;;;;;5093206;28;20043;-84
2023/07/10 10:16:17;;;;;;;7.77;3.70;;;;;;;;;;5092609;28;20494;-85
2023/07/10 10:18:56;;;;;;;8.93;4.35;;;;;;;;;;5092682;28;20020;-84
2023/07/10 10:21:22;;;;;;;6.22;4.00;;;;;;;;;;5092905;28;20448;-84
2023/07/10 10:23:50;;;;;;;7.95;3.70;;;;;;;;;;5092793;28;20028;-84
2023/07/10 10:26:16;;;;;;;8.80;3.88;;;;;;;;;;5094576;28;20020;-85
2023/07/10 10:28:56;;;;;;;6.57;3.90;;;;;;;;;;5096313;28;20368;-81
2023/07/10 10:31:26;;;;;;;6.53;3.80;;;;;;;;;;5095528;28;20078;-82
2023/07/10 10:33:59;;;;;;;10.98;4.30;;;;;;;;;;5098220;28;20028;-81
2023/07/10 10:36:33;;;;;;;10.93;4.32;;;;;;;;;;5096009;28;20019;-82
2023/07/10 10:39:06;;;;;;;8.57;3.85;;;;;;;;;;5098878;28;20020;-82
2023/07/10 10:41:50;;;;;;;6.07;4.00;;;819.70;1894.40;;;;;;5118500;28;20040;-81
2023/07/10 10:44:27;;;;;;;8.25;4.13;;;819.60;1894.40;;;;;;5095811;28;20455;-82
2023/07/10 10:46:53;;;;;;;6.13;3.67;;;;;;;;;;5096033;28;20104;-81
2023/07/10 10:49:34;;;;;;;7.93;3.85;;;;;;;;;;5096656;28;20020;-81
2023/07/10 10:52:12;;;;;;;5.47;4.03;;;820.10;1843.20;;;;;;5096030;28;20032;-80
2023/07/10 10:55:08;;;;;;;9.15;4.03;;;819.60;1868.80;;;;;;5094606;28;20109;-80
2023/07/10 10:57:49;;;;;;;5.68;3.60;;;819.80;1868.80;;;;;;5095329;28;20028;-80
2023/07/10 11:00:33;;;;;;;5.65;3.63;;;819.60;1894.40;;;;;;5096836;28;20059;-80
2023/07/10 11:03:26;;;;;;;9.32;7.47;;;819.80;1868.80;;;;;;5095422;28;20078;-80
2023/07/10 11:05:56;;;;;;;5.93;3.72;;;819.90;1894.40;;;;;;5096635;28;20330;-80
2023/07/10 11:08:25;;;;;;;6.05;4.78;;;;;;;;;;5096823;28;20056;-80
2023/07/10 11:10:52;;;;;;;8.63;4.45;;;;;;;;;;5096088;28;20122;-81
2023/07/10 11:13:20;;;;;;;9.40;4.40;;;;;;;;;;5095792;28;20081;-82
2023/07/10 11:15:46;;;;;;;8.77;4.70;;;;;;;;;;5097015;28;20028;-81
2023/07/10 11:18:15;;;;;;;10.30;4.15;;;;;;;;;;5095387;28;20023;-81
2023/07/10 11:20:41;;;;;;;9.10;4.28;;;;;;;;;;5095760;28;20021;-81
2023/07/10 11:23:27;;;;;;;6.18;4.47;;;;;;;;;;5095590;28;20039;-81
2023/07/10 11:26:19;;;;;;;6.03;3.90;;;;;;;;;;5095122;28;20031;-80
2023/07/10 11:28:49;;;;;;;6.43;3.83;;;;;;;;;;5092796;28;20484;-81
2023/07/10 11:31:31;;;;;;;7.05;4.03;;;;;;;;;;5096193;28;20020;-82
2023/07/10 11:34:06;;;;;;;6.22;3.63;;;;;;;;;;5094986;28;20042;-81
2023/07/10 11:36:58;;;;;;;7.47;3.47;;;;;;;;;;5095847;28;20024;-82
2023/07/10 11:39:32;;;;;;;4.22;3.33;;;;;;;;;;5097852;28;20028;-81
2023/07/10 11:42:16;;;;;;;6.70;3.33;;;845.40;1612.80;;;;;;5100378;28;20020;-80
2023/07/10 11:44:46;;;;;;;4.30;2.90;;;;;;;;;;5099531;28;20024;-81
2023/07/10 11:47:23;;;;;;;5.72;3.30;;;;;;;;;;5097488;28;20016;-81
2023/07/10 11:49:51;;;;;;;5.63;3.30;;;845.70;1689.60;;;;;;5096711;28;20027;-80
2023/07/10 11:52:17;;;;;;;4.88;3.05;;;845.50;1689.60;;;;;;5096772;28;20830;-82
2023/07/10 11:54:49;;;;;;;4.50;3.38;;;845.40;1664.00;;;;;;5096235;28;20111;-82
2023/07/10 11:57:20;;;;;;;4.40;3.30;;;845.50;1612.80;;;;;;5094733;28;20115;-82
2023/07/10 11:59:50;;;;;;;5.97;3.22;;;870.70;1587.20;;;;;;5094261;28;20032;-81
2023/07/10 12:02:26;;;;;;;6.03;3.80;;;870.70;1587.20;;;;;;5094565;28;20119;-79
2023/07/10 12:04:53;;;;;;;4.85;3.58;;;870.90;1587.20;;;;;;5094266;28;20491;-78
2023/07/10 12:07:19;;;;;;;6.85;4.00;;;871.10;1587.20;;;;;;5089632;28;20546;-78
2023/07/10 12:09:52;;;;;;;5.78;4.43;;;871.10;1561.60;;;;;;5073809;28;20546;-79
2023/07/10 12:12:18;;;;;;;7.10;3.30;;;871.10;1612.80;;;;;;5075125;28;20107;-79
2023/07/10 12:14:44;;;;;;;6.15;3.65;;;871.10;1612.80;;;;;;5073528;28;20059;-78
2023/07/10 12:17:18;;;;;;;5.90;3.92;;;870.90;1510.40;;;;;;5075370;28;20033;-79
2023/07/10 12:19:45;;;;;;;4.53;3.42;;;871.10;1536.00;;;;;;5075324;28;20475;-78
2023/07/10 12:22:23;;;;;;;5.88;3.42;;;870.70;1561.60;;;;;;5073521;28;20439;-80
2023/07/10 12:25:00;;;;;;;7.47;3.95;;;871.10;1561.60;;;;;;5075133;28;20029;-79
2023/07/10 12:27:32;;;;;;;5.88;3.47;;;871.10;1612.80;;;;;;5081325;28;20101;-79
2023/07/10 12:30:01;;;;;;;6.90;3.60;;;871.20;1561.60;;;;;;5081607;28;20080;-78
2023/07/10 12:32:31;;;;;;;6.35;3.78;;;871.30;1587.20;;;;;;5094231;28;20398;-79
2023/07/10 12:34:56;;;;;;;9.50;3.53;;;871.30;1561.60;;;;;;5094658;28;20081;-80
2023/07/10 12:37:23;;;;;;;7.07;4.18;;;896.20;1561.60;;;;;;5094980;28;20028;-78
2023/07/10 12:39:50;;;;;;;7.40;4.25;;;896.50;1561.60;;;;;;5095304;28;20099;-80
2023/07/10 12:42:32;;;;;;;10.25;4.43;;;896.60;1561.60;;;;;;5093526;28;20535;-80
2023/07/10 12:45:05;;;;;;;6.45;3.85;;;896.60;1561.60;;;;;;5094828;28;20124;-80
2023/07/10 12:47:34;;;;;;;6.70;3.78;;;896.60;1561.60;;;;;;5095223;28;20020;-79